Time,TemperatureF,DewpointF,PressureIn,WindDirection,WindDirectionDegrees,WindSpeedMPH,WindSpeedGustMPH,Humidity,HourlyPrecipIn,Conditions,Clouds,dailyrainin,SoftwareType,DateUTC
2013-01-21 00:05:00,59.0,55.8,30.06,NE,39,0.0,0.0,89,0.00,,,0.00,Wunderground v.1.15,2013-01-21 05:05:00,
2013-01-21 00:10:00,59.0,55.8,30.06,NE,39,0.0,0.0,89,0.00,,,0.00,Wunderground v.1.15,2013-01-21 05:10:00,
2013-01-21 00:15:00,59.2,56.0,30.06,NE,38,0.0,0.0,89,0.00,,,0.00,Wunderground v.1.15,2013-01-21 05:15:00,
2013-01-21 00:20:00,59.3,56.1,30.06,NE,39,0.0,0.0,89,0.00,,,0.00,Wunderground v.1.15,2013-01-21 05:20:00,
2013-01-21 00:25:00,59.4,55.8,30.06,NE,39,0.0,0.0,88,0.00,,,0.00,Wunderground v.1.15,2013-01-21 05:25:00,
2013-01-21 00:30:00,59.5,56.3,30.06,NE,38,0.0,0.0,89,0.00,,,0.00,Wunderground v.1.15,2013-01-21 05:30:00,
2013-01-21 00:35:00,59.6,56.0,30.06,NE,39,0.0,0.0,88,0.00,,,0.00,Wunderground v.1.15,2013-01-21 05:35:00,
2013-01-21 00:40:00,59.6,56.0,30.06,NE,39,0.0,0.0,88,0.00,,,0.00,Wunderground v.1.15,2013-01-21 05:40:00,
2013-01-21 00:45:00,59.7,56.1,30.05,NE,39,0.0,0.0,88,0.00,,,0.00,Wunderground v.1.15,2013-01-21 05:45:00,
2013-01-21 00:50:00,59.8,56.2,30.05,NE,39,0.0,0.0,88,0.00,,,0.00,Wunderground v.1.15,2013-01-21 05:50:00,
2013-01-21 00:55:00,59.8,56.2,30.05,NE,38,0.0,0.0,88,0.00,,,0.00,Wunderground v.1.15,2013-01-21 05:55:00,
2013-01-21 01:00:00,59.9,56.3,30.06,NE,39,0.0,0.0,88,0.00,,,0.00,Wunderground v.1.15,2013-01-21 06:00:00,
2013-01-21 01:05:00,59.8,56.2,30.06,NE,39,0.0,0.0,88,0.00,,,0.00,Wunderground v.1.15,2013-01-21 06:05:00,
2013-01-21 01:10:00,59.9,56.3,30.06,NE,39,0.0,0.0,88,0.00,,,0.00,Wunderground v.1.15,2013-01-21 06:10:00,
2013-01-21 01:15:00,59.9,56.3,30.06,NE,39,0.0,0.0,88,0.00,,,0.00,Wunderground v.1.15,2013-01-21 06:15:00,
2013-01-21 01:20:00,60.0,56.7,30.05,NE,38,0.0,0.0,89,0.00,,,0.00,Wunderground v.1.15,2013-01-21 06:20:00,
2013-01-21 01:25:00,60.0,56.7,30.06,NE,39,0.0,0.0,89,0.00,,,0.00,Wunderground v.1.15,2013-01-21 06:25:00,
2013-01-21 01:30:00,60.1,56.8,30.05,NE,39,0.0,0.0,89,0.00,,,0.00,Wunderground v.1.15,2013-01-21 06:30:00,
2013-01-21 01:40:00,60.0,56.7,30.05,NE,39,0.0,0.0,89,0.00,,,0.00,Wunderground v.1.15,2013-01-21 06:40:00,
2013-01-21 01:45:00,59.9,56.6,30.05,NE,38,0.0,0.0,89,0.00,,,0.00,Wunderground v.1.15,2013-01-21 06:45:00,
2013-01-21 01:50:00,59.9,56.6,30.04,NE,39,0.0,0.0,89,0.00,,,0.00,Wunderground v.1.15,2013-01-21 06:50:00,
2013-01-21 01:55:00,59.8,56.6,30.04,NE,38,0.0,0.0,89,0.00,,,0.00,Wunderground v.1.15,2013-01-21 06:55:00,
2013-01-21 02:00:00,59.8,56.6,30.04,NE,38,0.0,0.0,89,0.00,,,0.00,Wunderground v.1.15,2013-01-21 07:00:00,
2013-01-21 02:05:00,59.8,56.6,30.04,NE,38,0.0,0.0,89,0.00,,,0.00,Wunderground v.1.15,2013-01-21 07:05:00,
2013-01-21 02:10:00,59.8,56.6,30.04,NE,39,0.0,0.0,89,0.00,,,0.00,Wunderground v.1.15,2013-01-21 07:10:00,
2013-01-21 02:15:00,59.8,56.6,30.04,NE,39,0.0,0.0,89,0.00,,,0.00,Wunderground v.1.15,2013-01-21 07:15:00,
2013-01-21 02:20:00,59.8,56.6,30.04,NE,39,0.0,0.0,89,0.00,,,0.00,Wunderground v.1.15,2013-01-21 07:20:00,
2013-01-21 02:25:00,59.8,56.6,30.03,NE,38,0.0,0.0,89,0.00,,,0.00,Wunderground v.1.15,2013-01-21 07:25:00,
2013-01-21 02:30:00,59.8,56.6,30.03,NE,39,0.0,0.0,89,0.00,,,0.00,Wunderground v.1.15,2013-01-21 07:30:00,
2013-01-21 02:40:00,59.6,56.4,30.03,NE,39,0.0,0.0,89,0.00,,,0.00,Wunderground v.1.15,2013-01-21 07:40:00,
2013-01-21 02:45:00,59.6,56.4,30.03,NE,38,0.0,0.0,89,0.00,,,0.00,Wunderground v.1.15,2013-01-21 07:45:00,
2013-01-21 02:50:00,59.5,56.3,30.03,NE,39,0.0,0.0,89,0.00,,,0.00,Wunderground v.1.15,2013-01-21 07:50:00,
2013-01-21 02:55:00,59.4,56.2,30.02,NE,38,0.0,0.0,89,0.00,,,0.00,Wunderground v.1.15,2013-01-21 07:55:00,
2013-01-21 03:00:00,59.3,56.1,30.02,NE,39,0.0,0.0,89,0.00,,,0.00,Wunderground v.1.15,2013-01-21 08:00:00,
2013-01-21 03:05:00,59.0,55.8,30.02,NE,39,0.0,0.0,89,0.00,,,0.00,Wunderground v.1.15,2013-01-21 08:05:00,
2013-01-21 03:10:00,59.0,55.8,30.03,NE,39,0.0,0.0,89,0.00,,,0.00,Wunderground v.1.15,2013-01-21 08:10:00,
2013-01-21 03:15:00,59.0,56.1,30.02,NE,38,0.0,0.0,90,0.00,,,0.00,Wunderground v.1.15,2013-01-21 08:15:00,
2013-01-21 03:20:00,59.0,56.1,30.02,NE,39,0.0,0.0,90,0.00,,,0.00,Wunderground v.1.15,2013-01-21 08:20:00,
2013-01-21 03:25:00,58.9,56.0,30.02,NE,38,0.0,0.0,90,0.00,,,0.00,Wunderground v.1.15,2013-01-21 08:25:00,
2013-01-21 03:30:00,58.7,55.8,30.03,NE,39,0.0,0.0,90,0.00,,,0.00,Wunderground v.1.15,2013-01-21 08:30:00,
2013-01-21 03:35:00,58.6,55.7,30.02,NE,38,0.0,0.0,90,0.00,,,0.00,Wunderground v.1.15,2013-01-21 08:35:00,
2013-01-21 03:40:00,58.6,55.7,30.03,NE,39,0.0,0.0,90,0.00,,,0.00,Wunderground v.1.15,2013-01-21 08:40:00,
2013-01-21 03:45:00,58.6,55.7,30.03,NE,39,0.0,0.0,90,0.00,,,0.00,Wunderground v.1.15,2013-01-21 08:45:00,
2013-01-21 03:50:00,58.6,55.7,30.02,NE,38,0.0,0.0,90,0.00,,,0.00,Wunderground v.1.15,2013-01-21 08:50:00,
2013-01-21 03:55:00,58.7,55.8,30.02,NE,39,0.0,0.0,90,0.00,,,0.00,Wunderground v.1.15,2013-01-21 08:55:00,
2013-01-21 04:00:00,58.7,55.8,30.02,NE,39,0.0,0.0,90,0.00,,,0.00,Wunderground v.1.15,2013-01-21 09:00:00,
2013-01-21 04:05:00,58.6,55.7,30.02,NE,38,0.0,0.0,90,0.00,,,0.00,Wunderground v.1.15,2013-01-21 09:05:00,
2013-01-21 04:15:00,58.7,56.1,30.01,NE,38,0.0,0.0,91,0.00,,,0.00,Wunderground v.1.15,2013-01-21 09:15:00,
2013-01-21 04:20:00,58.7,56.1,30.01,NE,38,0.0,0.0,91,0.00,,,0.00,Wunderground v.1.15,2013-01-21 09:20:00,
2013-01-21 04:25:00,58.7,56.1,30.01,NE,39,0.0,0.0,91,0.00,,,0.00,Wunderground v.1.15,2013-01-21 09:25:00,
2013-01-21 04:30:00,58.7,56.1,30.01,NE,39,0.0,0.0,91,0.00,,,0.00,Wunderground v.1.15,2013-01-21 09:30:00,
2013-01-21 04:35:00,58.7,56.1,30.01,NE,39,0.0,0.0,91,0.00,,,0.00,Wunderground v.1.15,2013-01-21 09:35:00,
2013-01-21 04:40:00,58.7,56.1,30.01,NE,38,0.0,0.0,91,0.00,,,0.00,Wunderground v.1.15,2013-01-21 09:40:00,
2013-01-21 04:45:00,58.6,56.0,30.01,NE,38,0.0,0.0,91,0.00,,,0.00,Wunderground v.1.15,2013-01-21 09:45:00,
2013-01-21 04:50:00,58.6,56.0,30.01,NE,39,0.0,0.0,91,0.00,,,0.00,Wunderground v.1.15,2013-01-21 09:50:00,
2013-01-21 04:55:00,58.6,56.0,30.01,NE,39,0.0,0.0,91,0.00,,,0.00,Wunderground v.1.15,2013-01-21 09:55:00,
2013-01-21 05:00:00,58.5,55.9,30.01,NE,39,0.0,0.0,91,0.00,,,0.00,Wunderground v.1.15,2013-01-21 10:00:00,
2013-01-21 05:05:00,58.4,55.8,30.01,NE,38,0.0,0.0,91,0.00,,,0.00,Wunderground v.1.15,2013-01-21 10:05:00,
2013-01-21 05:10:00,58.3,55.7,30.01,NE,39,0.0,0.0,91,0.00,,,0.00,Wunderground v.1.15,2013-01-21 10:10:00,
2013-01-21 05:15:00,58.3,55.7,30.01,NE,38,0.0,0.0,91,0.00,,,0.00,Wunderground v.1.15,2013-01-21 10:15:00,
2013-01-21 05:20:00,58.2,55.6,30.01,NE,39,0.0,0.0,91,0.00,,,0.00,Wunderground v.1.15,2013-01-21 10:20:00,
2013-01-21 05:25:00,58.1,55.5,30.01,NE,39,0.0,0.0,91,0.00,,,0.00,Wunderground v.1.15,2013-01-21 10:25:00,
2013-01-21 05:30:00,58.0,55.4,30.01,NE,39,0.0,0.0,91,0.00,,,0.00,Wunderground v.1.15,2013-01-21 10:30:00,
2013-01-21 05:35:00,58.0,55.4,30.01,NE,39,0.0,0.0,91,0.00,,,0.00,Wunderground v.1.15,2013-01-21 10:35:00,
2013-01-21 05:40:00,58.1,55.5,30.01,NE,39,0.0,0.0,91,0.00,,,0.00,Wunderground v.1.15,2013-01-21 10:40:00,
2013-01-21 05:45:00,58.2,55.6,30.01,NE,38,0.0,0.0,91,0.00,,,0.00,Wunderground v.1.15,2013-01-21 10:45:00,
2013-01-21 05:50:00,58.3,55.7,30.01,NE,38,0.0,0.0,91,0.00,,,0.00,Wunderground v.1.15,2013-01-21 10:50:00,
2013-01-21 05:55:00,58.4,56.1,30.01,NE,39,0.0,0.0,92,0.00,,,0.00,Wunderground v.1.15,2013-01-21 10:55:00,
2013-01-21 06:00:00,58.5,56.2,30.01,NE,39,0.0,0.0,92,0.00,,,0.00,Wunderground v.1.15,2013-01-21 11:00:00,
2013-01-21 06:05:00,58.7,56.4,30.01,NE,39,0.0,0.0,92,0.00,,,0.00,Wunderground v.1.15,2013-01-21 11:05:00,
2013-01-21 06:15:00,59.0,56.7,30.02,NE,39,0.0,0.0,92,0.00,,,0.00,Wunderground v.1.15,2013-01-21 11:15:00,
2013-01-21 06:20:00,59.0,56.7,30.01,NE,39,0.0,0.0,92,0.00,,,0.00,Wunderground v.1.15,2013-01-21 11:20:00,
2013-01-21 06:25:00,59.0,56.7,30.02,NE,38,0.0,0.0,92,0.00,,,0.00,Wunderground v.1.15,2013-01-21 11:25:00,
2013-01-21 06:30:00,59.2,56.9,30.02,NE,39,0.0,0.0,92,0.00,,,0.00,Wunderground v.1.15,2013-01-21 11:30:00,
2013-01-21 06:40:00,59.2,56.9,30.02,NE,39,0.0,0.0,92,0.00,,,0.00,Wunderground v.1.15,2013-01-21 11:40:00,
2013-01-21 06:45:00,59.4,57.1,30.02,NE,39,0.0,0.0,92,0.00,,,0.00,Wunderground v.1.15,2013-01-21 11:45:00,
2013-01-21 06:50:00,59.4,57.1,30.02,NE,39,0.0,0.0,92,0.00,,,0.00,Wunderground v.1.15,2013-01-21 11:50:00,
2013-01-21 06:55:00,59.5,57.2,30.02,NE,38,0.0,0.0,92,0.00,,,0.00,Wunderground v.1.15,2013-01-21 11:55:00,
2013-01-21 07:00:00,59.6,57.3,30.03,NE,39,0.0,0.0,92,0.00,,,0.00,Wunderground v.1.15,2013-01-21 12:00:00,
2013-01-21 07:05:00,59.7,57.4,30.02,NE,39,0.0,0.0,92,0.00,,,0.00,Wunderground v.1.15,2013-01-21 12:05:00,
2013-01-21 07:10:00,59.8,57.5,30.03,NE,39,0.0,0.0,92,0.00,,,0.00,Wunderground v.1.15,2013-01-21 12:10:00,
2013-01-21 07:15:00,59.8,57.5,30.03,NE,38,0.0,0.0,92,0.00,,,0.00,Wunderground v.1.15,2013-01-21 12:15:00,
2013-01-21 07:20:00,59.7,57.4,30.03,NE,39,0.0,0.0,92,0.00,,,0.00,Wunderground v.1.15,2013-01-21 12:20:00,
2013-01-21 07:25:00,59.7,57.4,30.03,NE,38,0.0,0.0,92,0.00,,,0.00,Wunderground v.1.15,2013-01-21 12:25:00,
2013-01-21 07:30:00,59.6,57.3,30.04,NE,39,0.0,0.0,92,0.00,,,0.00,Wunderground v.1.15,2013-01-21 12:30:00,
2013-01-21 07:35:00,59.5,57.2,30.04,NE,38,0.0,0.0,92,0.00,,,0.00,Wunderground v.1.15,2013-01-21 12:35:00,
2013-01-21 07:40:00,59.5,57.2,30.04,NE,39,0.0,0.0,92,0.00,,,0.00,Wunderground v.1.15,2013-01-21 12:40:00,
2013-01-21 07:45:00,59.4,57.1,30.04,NE,39,0.0,0.0,92,0.00,,,0.00,Wunderground v.1.15,2013-01-21 12:45:00,
2013-01-21 07:50:00,59.4,57.1,30.04,NE,39,0.0,0.0,92,0.00,,,0.00,Wunderground v.1.15,2013-01-21 12:50:00,
2013-01-21 07:55:00,59.5,57.2,30.04,NE,38,0.0,0.0,92,0.00,,,0.00,Wunderground v.1.15,2013-01-21 12:55:00,
2013-01-21 08:00:00,59.7,57.4,30.05,NE,39,0.0,0.0,92,0.00,,,0.00,Wunderground v.1.15,2013-01-21 13:00:00,
2013-01-21 08:05:00,59.9,57.6,30.05,NE,38,0.0,0.0,92,0.00,,,0.00,Wunderground v.1.15,2013-01-21 13:05:00,
2013-01-21 08:10:00,60.1,57.8,30.05,NE,39,0.0,0.0,92,0.00,,,0.00,Wunderground v.1.15,2013-01-21 13:10:00,
2013-01-21 08:15:00,60.3,58.0,30.05,NE,39,0.0,0.0,92,0.00,,,0.00,Wunderground v.1.15,2013-01-21 13:15:00,
2013-01-21 08:20:00,60.4,58.1,30.05,NE,38,0.0,0.0,92,0.00,,,0.00,Wunderground v.1.15,2013-01-21 13:20:00,
2013-01-21 08:25:00,60.5,58.2,30.06,NE,39,0.0,0.0,92,0.00,,,0.00,Wunderground v.1.15,2013-01-21 13:25:00,
2013-01-21 08:30:00,60.7,58.4,30.06,NE,39,0.0,0.0,92,0.00,,,0.00,Wunderground v.1.15,2013-01-21 13:30:00,
2013-01-21 08:35:00,60.7,58.1,30.06,NE,39,0.0,0.0,91,0.00,,,0.00,Wunderground v.1.15,2013-01-21 13:35:00,
2013-01-21 08:40:00,60.8,58.2,30.06,NE,38,0.0,0.0,91,0.00,,,0.00,Wunderground v.1.15,2013-01-21 13:40:00,
2013-01-21 08:45:00,61.0,58.4,30.07,NE,39,1.0,2.0,91,0.00,,,0.00,Wunderground v.1.15,2013-01-21 13:45:00,
2013-01-21 08:55:00,61.6,58.9,30.07,NE,39,2.0,4.0,91,0.00,,,0.00,Wunderground v.1.15,2013-01-21 13:55:00,
2013-01-21 09:00:00,62.1,59.4,30.07,NE,39,2.0,2.0,91,0.00,,,0.00,Wunderground v.1.15,2013-01-21 14:00:00,
2013-01-21 09:05:00,62.9,60.2,30.07,NE,39,2.0,2.0,91,0.00,,,0.00,Wunderground v.1.15,2013-01-21 14:05:00,
2013-01-21 09:15:00,64.5,60.9,30.06,NNE,24,4.0,6.0,88,0.00,,,0.00,Wunderground v.1.15,2013-01-21 14:15:00,
2013-01-21 09:20:00,65.0,60.7,30.07,North,10,5.0,5.0,86,0.00,,,0.00,Wunderground v.1.15,2013-01-21 14:20:00,
2013-01-21 09:25:00,65.3,60.7,30.06,North,10,5.0,5.0,85,0.00,,,0.00,Wunderground v.1.15,2013-01-21 14:25:00,
2013-01-21 09:30:00,65.4,60.8,30.06,NNE,13,4.0,6.0,85,0.00,,,0.00,Wunderground v.1.15,2013-01-21 14:30:00,
2013-01-21 09:35:00,65.8,60.8,30.06,NNE,13,4.0,6.0,84,0.00,,,0.00,Wunderground v.1.15,2013-01-21 14:35:00,
2013-01-21 09:40:00,65.9,60.9,30.07,NNE,13,4.0,4.0,84,0.00,,,0.00,Wunderground v.1.15,2013-01-21 14:40:00,
2013-01-21 09:45:00,66.1,61.1,30.06,NNE,13,4.0,4.0,84,0.00,,,0.00,Wunderground v.1.15,2013-01-21 14:45:00,
2013-01-21 09:55:00,66.7,61.7,30.07,NNE,14,4.0,4.0,84,0.00,,,0.00,Wunderground v.1.15,2013-01-21 14:55:00,
2013-01-21 10:00:00,66.9,61.9,30.07,NNE,14,4.0,4.0,84,0.00,,,0.00,Wunderground v.1.15,2013-01-21 15:00:00,
2013-01-21 10:05:00,67.3,62.3,30.07,NNE,15,3.0,4.0,84,0.00,,,0.00,Wunderground v.1.15,2013-01-21 15:05:00,
2013-01-21 10:10:00,67.5,62.5,30.07,NNE,15,3.0,3.0,84,0.00,,,0.00,Wunderground v.1.15,2013-01-21 15:10:00,
2013-01-21 10:15:00,67.9,62.5,30.07,NNE,15,3.0,3.0,83,0.00,,,0.00,Wunderground v.1.15,2013-01-21 15:15:00,
2013-01-21 10:20:00,68.2,62.8,30.07,NNE,15,3.0,3.0,83,0.00,,,0.00,Wunderground v.1.15,2013-01-21 15:20:00,
2013-01-21 10:25:00,68.5,63.1,30.07,NNE,15,2.0,5.0,83,0.00,,,0.00,Wunderground v.1.15,2013-01-21 15:25:00,
2013-01-21 10:30:00,68.8,63.1,30.07,NNE,14,3.0,3.0,82,0.00,,,0.00,Wunderground v.1.15,2013-01-21 15:30:00,
2013-01-21 10:35:00,69.1,63.4,30.07,NNE,14,3.0,3.0,82,0.00,,,0.00,Wunderground v.1.15,2013-01-21 15:35:00,
2013-01-21 10:40:00,69.7,64.0,30.07,NNE,15,3.0,3.0,82,0.00,,,0.00,Wunderground v.1.15,2013-01-21 15:40:00,
2013-01-21 10:45:00,69.9,63.8,30.07,NE,34,3.0,4.0,81,0.00,,,0.00,Wunderground v.1.15,2013-01-21 15:45:00,
2013-01-21 10:50:00,69.8,63.7,30.07,NNE,23,5.0,5.0,81,0.00,,,0.00,Wunderground v.1.15,2013-01-21 15:50:00,
2013-01-21 10:55:00,69.9,63.8,30.07,NNE,15,5.0,5.0,81,0.00,,,0.00,Wunderground v.1.15,2013-01-21 15:55:00,
2013-01-21 11:00:00,70.2,64.1,30.07,NNE,17,4.0,5.0,81,0.00,,,0.00,Wunderground v.1.15,2013-01-21 16:00:00,
2013-01-21 11:05:00,70.5,64.4,30.06,NNE,15,4.0,5.0,81,0.00,,,0.00,Wunderground v.1.15,2013-01-21 16:05:00,
2013-01-21 11:10:00,70.9,64.4,30.06,NNE,15,4.0,6.0,80,0.00,,,0.00,Wunderground v.1.15,2013-01-21 16:10:00,
2013-01-21 11:15:00,70.8,64.3,30.06,NNE,14,4.0,6.0,80,0.00,,,0.00,Wunderground v.1.15,2013-01-21 16:15:00,
2013-01-21 11:20:00,70.8,64.0,30.06,NNE,13,4.0,4.0,79,0.00,,,0.00,Wunderground v.1.15,2013-01-21 16:20:00,
2013-01-21 11:25:00,71.2,64.4,30.06,NNE,13,3.0,4.0,79,0.00,,,0.00,Wunderground v.1.15,2013-01-21 16:25:00,
2013-01-21 11:30:00,71.4,64.5,30.06,North,5,3.0,4.0,79,0.00,,,0.00,Wunderground v.1.15,2013-01-21 16:30:00,
2013-01-21 11:35:00,72.0,64.8,30.06,North,360,4.0,4.0,78,0.00,,,0.00,Wunderground v.1.15,2013-01-21 16:35:00,
2013-01-21 11:40:00,72.1,64.9,30.06,North,355,4.0,4.0,78,0.00,,,0.00,Wunderground v.1.15,2013-01-21 16:40:00,
2013-01-21 11:45:00,72.0,64.8,30.05,North,355,4.0,4.0,78,0.00,,,0.00,Wunderground v.1.15,2013-01-21 16:45:00,
2013-01-21 11:50:00,71.8,64.6,30.05,North,355,4.0,4.0,78,0.00,,,0.00,Wunderground v.1.15,2013-01-21 16:50:00,
2013-01-21 11:55:00,72.0,65.1,30.05,North,349,4.0,6.0,79,0.00,,,0.00,Wunderground v.1.15,2013-01-21 16:55:00,
2013-01-21 12:00:00,71.9,64.7,30.04,NNW,346,4.0,4.0,78,0.00,,,0.00,Wunderground v.1.15,2013-01-21 17:00:00,
2013-01-21 12:05:00,71.7,64.5,30.04,NNW,331,4.0,4.0,78,0.00,,,0.00,Wunderground v.1.15,2013-01-21 17:05:00,
2013-01-21 12:10:00,71.5,64.6,30.04,NNW,330,4.0,4.0,79,0.00,,,0.00,Wunderground v.1.15,2013-01-21 17:10:00,
2013-01-21 12:15:00,71.0,64.2,30.04,NNW,333,3.0,5.0,79,0.00,,,0.00,Wunderground v.1.15,2013-01-21 17:15:00,
2013-01-21 12:20:00,70.6,64.1,30.04,NNW,333,4.0,4.0,80,0.00,,,0.00,Wunderground v.1.15,2013-01-21 17:20:00,
2013-01-21 12:25:00,70.1,64.0,30.04,NNW,335,4.0,4.0,81,0.00,,,0.00,Wunderground v.1.15,2013-01-21 17:25:00,
2013-01-21 12:30:00,69.8,64.1,30.04,NNW,334,3.0,3.0,82,0.00,,,0.00,Wunderground v.1.15,2013-01-21 17:30:00,
2013-01-21 12:35:00,69.5,64.1,30.03,NNW,335,3.0,4.0,83,0.00,,,0.00,Wunderground v.1.15,2013-01-21 17:35:00,
2013-01-21 12:40:00,69.3,64.3,30.03,NNW,334,3.0,3.0,84,0.00,,,0.00,Wunderground v.1.15,2013-01-21 17:40:00,
2013-01-21 12:45:00,69.1,64.4,30.03,NNW,335,2.0,3.0,85,0.00,,,0.00,Wunderground v.1.15,2013-01-21 17:45:00,
2013-01-21 12:50:00,68.9,64.2,30.02,NNW,335,2.0,2.0,85,0.00,,,0.00,Wunderground v.1.15,2013-01-21 17:50:00,
2013-01-21 12:55:00,69.0,64.3,30.01,NNW,335,3.0,3.0,85,0.00,,,0.00,Wunderground v.1.15,2013-01-21 17:55:00,
2013-01-21 13:00:00,69.0,64.3,30.01,NNW,334,3.0,4.0,85,0.00,,,0.00,Wunderground v.1.15,2013-01-21 18:00:00,
2013-01-21 13:05:00,69.3,64.6,30.01,NNW,335,3.0,4.0,85,0.00,,,0.00,Wunderground v.1.15,2013-01-21 18:05:00,
2013-01-21 13:15:00,70.2,65.1,30.00,NNW,335,2.0,3.0,84,0.00,,,0.00,Wunderground v.1.15,2013-01-21 18:15:00,
2013-01-21 13:20:00,70.7,65.3,30.00,NNW,335,2.0,2.0,83,0.00,,,0.00,Wunderground v.1.15,2013-01-21 18:20:00,
2013-01-21 13:25:00,71.1,65.3,30.00,NNW,335,2.0,2.0,82,0.00,,,0.00,Wunderground v.1.15,2013-01-21 18:25:00,
2013-01-21 13:30:00,71.3,65.5,30.00,NNW,335,1.0,1.0,82,0.00,,,0.00,Wunderground v.1.15,2013-01-21 18:30:00,
2013-01-21 13:35:00,71.6,65.1,29.99,NNW,335,2.0,3.0,80,0.00,,,0.00,Wunderground v.1.15,2013-01-21 18:35:00,
2013-01-21 13:40:00,71.7,65.2,29.99,NNW,335,2.0,2.0,80,0.00,,,0.00,Wunderground v.1.15,2013-01-21 18:40:00,
2013-01-21 13:45:00,71.8,64.9,29.98,NNW,335,1.0,2.0,79,0.00,,,0.00,Wunderground v.1.15,2013-01-21 18:45:00,
2013-01-21 13:50:00,71.9,65.0,29.98,NNW,334,0.0,0.0,79,0.00,,,0.00,Wunderground v.1.15,2013-01-21 18:50:00,
2013-01-21 13:55:00,72.4,65.2,29.98,NNW,334,1.0,3.0,78,0.00,,,0.00,Wunderground v.1.15,2013-01-21 18:55:00,
2013-01-21 14:00:00,72.9,64.9,29.98,NNW,335,2.0,4.0,76,0.00,,,0.00,Wunderground v.1.15,2013-01-21 19:00:00,
2013-01-21 14:05:00,72.8,64.8,29.98,NNW,334,2.0,4.0,76,0.00,,,0.00,Wunderground v.1.15,2013-01-21 19:05:00,
2013-01-21 14:10:00,72.8,64.8,29.98,NNW,335,1.0,1.0,76,0.00,,,0.00,Wunderground v.1.15,2013-01-21 19:10:00,
2013-01-21 14:15:00,72.7,64.7,29.98,NNW,335,1.0,5.0,76,0.00,,,0.00,Wunderground v.1.15,2013-01-21 19:15:00,
2013-01-21 14:20:00,72.9,64.9,29.98,NNW,334,2.0,2.0,76,0.00,,,0.00,Wunderground v.1.15,2013-01-21 19:20:00,
2013-01-21 14:25:00,72.9,64.5,29.98,NNW,335,2.0,4.0,75,0.00,,,0.00,Wunderground v.1.15,2013-01-21 19:25:00,
2013-01-21 14:30:00,72.9,64.9,29.98,NNW,334,2.0,3.0,76,0.00,,,0.00,Wunderground v.1.15,2013-01-21 19:30:00,
2013-01-21 14:35:00,72.7,64.7,29.98,NNW,334,2.0,3.0,76,0.00,,,0.00,Wunderground v.1.15,2013-01-21 19:35:00,
2013-01-21 14:40:00,72.6,64.6,29.98,NNW,335,1.0,1.0,76,0.00,,,0.00,Wunderground v.1.15,2013-01-21 19:40:00,
2013-01-21 14:45:00,72.5,64.5,29.98,NNW,335,1.0,2.0,76,0.00,,,0.00,Wunderground v.1.15,2013-01-21 19:45:00,
2013-01-21 14:50:00,72.4,64.4,29.98,NNW,335,2.0,3.0,76,0.00,,,0.00,Wunderground v.1.15,2013-01-21 19:50:00,
2013-01-21 14:55:00,72.2,64.2,29.98,NNW,334,3.0,3.0,76,0.00,,,0.00,Wunderground v.1.15,2013-01-21 19:55:00,
2013-01-21 15:00:00,72.0,64.4,29.98,NNW,335,2.0,2.0,77,0.00,,,0.00,Wunderground v.1.15,2013-01-21 20:00:00,
2013-01-21 15:05:00,71.8,64.2,29.98,NNW,335,1.0,2.0,77,0.00,,,0.00,Wunderground v.1.15,2013-01-21 20:05:00,
2013-01-21 15:10:00,71.7,64.1,29.98,NNW,335,1.0,3.0,77,0.00,,,0.00,Wunderground v.1.15,2013-01-21 20:10:00,
2013-01-21 15:15:00,71.6,64.0,29.98,NNW,335,2.0,3.0,77,0.00,,,0.00,Wunderground v.1.15,2013-01-21 20:15:00,
2013-01-21 15:20:00,71.7,64.1,29.98,NNW,335,1.0,1.0,77,0.00,,,0.00,Wunderground v.1.15,2013-01-21 20:20:00,
2013-01-21 15:25:00,71.7,64.1,29.97,NNW,334,0.0,1.0,77,0.00,,,0.00,Wunderground v.1.15,2013-01-21 20:25:00,
2013-01-21 15:30:00,71.9,64.7,29.98,NNW,335,0.0,0.0,78,0.00,,,0.00,Wunderground v.1.15,2013-01-21 20:30:00,
2013-01-21 15:35:00,72.1,64.5,29.98,NNW,334,0.0,0.0,77,0.00,,,0.00,Wunderground v.1.15,2013-01-21 20:35:00,
2013-01-21 15:40:00,72.1,64.5,29.97,NNW,335,0.0,0.0,77,0.00,,,0.00,Wunderground v.1.15,2013-01-21 20:40:00,
2013-01-21 15:45:00,72.3,64.7,29.98,NNW,335,0.0,0.0,77,0.00,,,0.00,Wunderground v.1.15,2013-01-21 20:45:00,
2013-01-21 15:50:00,72.1,64.1,29.98,NNW,335,0.0,0.0,76,0.00,,,0.00,Wunderground v.1.15,2013-01-21 20:50:00,
2013-01-21 15:55:00,71.9,63.9,29.98,NNW,335,0.0,0.0,76,0.00,,,0.00,Wunderground v.1.15,2013-01-21 20:55:00,
2013-01-21 16:00:00,71.8,63.8,29.98,NNW,335,0.0,0.0,76,0.00,,,0.00,Wunderground v.1.15,2013-01-21 21:00:00,
2013-01-21 16:05:00,71.7,63.7,29.98,NNW,334,0.0,0.0,76,0.00,,,0.00,Wunderground v.1.15,2013-01-21 21:05:00,
2013-01-21 16:10:00,71.7,63.7,29.98,NNW,335,0.0,0.0,76,0.00,,,0.00,Wunderground v.1.15,2013-01-21 21:10:00,
2013-01-21 16:15:00,71.7,63.7,29.98,NNW,335,0.0,0.0,76,0.00,,,0.00,Wunderground v.1.15,2013-01-21 21:15:00,
2013-01-21 16:20:00,71.7,63.7,29.98,NNW,334,0.0,2.0,76,0.00,,,0.00,Wunderground v.1.15,2013-01-21 21:20:00,
2013-01-21 16:25:00,71.6,63.6,29.98,NNW,335,1.0,2.0,76,0.00,,,0.00,Wunderground v.1.15,2013-01-21 21:25:00,
2013-01-21 16:30:00,71.6,63.6,29.98,NNW,334,1.0,1.0,76,0.00,,,0.00,Wunderground v.1.15,2013-01-21 21:30:00,
2013-01-21 16:35:00,71.6,63.3,29.98,NNW,335,1.0,2.0,75,0.00,,,0.00,Wunderground v.1.15,2013-01-21 21:35:00,
2013-01-21 16:40:00,71.6,62.9,29.98,NNW,334,2.0,4.0,74,0.00,,,0.00,Wunderground v.1.15,2013-01-21 21:40:00,
2013-01-21 16:45:00,71.5,62.8,29.98,NNW,334,2.0,4.0,74,0.00,,,0.00,Wunderground v.1.15,2013-01-21 21:45:00,
2013-01-21 16:50:00,71.4,62.7,29.98,NNW,334,1.0,1.0,74,0.00,,,0.00,Wunderground v.1.15,2013-01-21 21:50:00,
2013-01-21 16:55:00,71.4,62.7,29.99,NNW,335,0.0,1.0,74,0.00,,,0.00,Wunderground v.1.15,2013-01-21 21:55:00,
2013-01-21 17:00:00,71.5,63.2,29.98,NNW,335,0.0,0.0,75,0.00,,,0.00,Wunderground v.1.15,2013-01-21 22:00:00,
2013-01-21 17:05:00,71.6,63.3,29.99,NNW,334,0.0,0.0,75,0.00,,,0.00,Wunderground v.1.15,2013-01-21 22:05:00,
2013-01-21 17:15:00,71.5,62.8,29.99,NNW,334,1.0,3.0,74,0.00,,,0.00,Wunderground v.1.15,2013-01-21 22:15:00,
2013-01-21 17:20:00,71.4,63.1,29.99,NNW,335,0.0,0.0,75,0.00,,,0.00,Wunderground v.1.15,2013-01-21 22:20:00,
2013-01-21 17:25:00,71.3,63.0,29.99,NNW,335,0.0,0.0,75,0.00,,,0.00,Wunderground v.1.15,2013-01-21 22:25:00,
2013-01-21 17:30:00,71.2,62.9,29.99,NNW,335,0.0,0.0,75,0.00,,,0.00,Wunderground v.1.15,2013-01-21 22:30:00,
2013-01-21 17:35:00,71.0,63.1,29.99,NNW,334,0.0,0.0,76,0.00,,,0.00,Wunderground v.1.15,2013-01-21 22:35:00,
2013-01-21 17:40:00,70.8,62.9,29.99,NNW,335,0.0,0.0,76,0.00,,,0.00,Wunderground v.1.15,2013-01-21 22:40:00,
2013-01-21 17:45:00,70.5,62.9,29.99,NNW,334,0.0,0.0,77,0.00,,,0.00,Wunderground v.1.15,2013-01-21 22:45:00,
2013-01-21 17:50:00,69.9,62.4,29.99,NNW,334,0.0,0.0,77,0.00,,,0.00,Wunderground v.1.15,2013-01-21 22:50:00,
2013-01-21 18:00:00,68.8,61.7,29.99,NNW,335,0.0,0.0,78,0.00,,,0.00,Wunderground v.1.15,2013-01-21 23:00:00,
2013-01-21 18:05:00,68.3,61.5,29.99,NNW,334,0.0,0.0,79,0.00,,,0.00,Wunderground v.1.15,2013-01-21 23:05:00,
2013-01-21 18:10:00,67.7,61.0,29.99,NNW,335,0.0,0.0,79,0.00,,,0.00,Wunderground v.1.15,2013-01-21 23:10:00,
2013-01-21 18:15:00,67.3,60.9,29.99,NNW,334,0.0,0.0,80,0.00,,,0.00,Wunderground v.1.15,2013-01-21 23:15:00,
2013-01-21 18:20:00,66.9,60.9,29.99,NNW,335,0.0,0.0,81,0.00,,,0.00,Wunderground v.1.15,2013-01-21 23:20:00,
2013-01-21 18:25:00,66.6,60.9,30.00,NNW,335,0.0,0.0,82,0.00,,,0.00,Wunderground v.1.15,2013-01-21 23:25:00,
2013-01-21 18:30:00,66.4,60.7,30.00,NNW,335,0.0,0.0,82,0.00,,,0.00,Wunderground v.1.15,2013-01-21 23:30:00,
2013-01-21 18:35:00,66.3,60.6,30.00,NNW,335,0.0,0.0,82,0.00,,,0.00,Wunderground v.1.15,2013-01-21 23:35:00,
2013-01-21 18:40:00,66.2,60.9,30.00,NNW,335,0.0,0.0,83,0.00,,,0.00,Wunderground v.1.15,2013-01-21 23:40:00,
2013-01-21 18:45:00,66.1,60.8,30.00,NNW,335,0.0,0.0,83,0.00,,,0.00,Wunderground v.1.15,2013-01-21 23:45:00,
2013-01-21 18:50:00,66.1,60.8,30.00,NNW,335,0.0,0.0,83,0.00,,,0.00,Wunderground v.1.15,2013-01-21 23:50:00,
2013-01-21 18:55:00,66.0,61.0,30.00,NNW,334,0.0,0.0,84,0.00,,,0.00,Wunderground v.1.15,2013-01-21 23:55:00,
2013-01-21 19:00:00,65.9,60.9,30.00,NNW,335,0.0,0.0,84,0.00,,,0.00,Wunderground v.1.15,2013-01-22 00:00:00,
2013-01-21 19:05:00,65.7,60.7,30.00,NNW,334,0.0,0.0,84,0.00,,,0.00,Wunderground v.1.15,2013-01-22 00:05:00,
2013-01-21 19:10:00,65.7,60.7,30.00,NNW,335,0.0,0.0,84,0.00,,,0.00,Wunderground v.1.15,2013-01-22 00:10:00,
2013-01-21 19:15:00,65.6,60.6,30.00,NNW,335,0.0,0.0,84,0.00,,,0.00,Wunderground v.1.15,2013-01-22 00:15:00,
2013-01-21 19:20:00,65.4,60.4,30.01,NNW,335,0.0,0.0,84,0.00,,,0.00,Wunderground v.1.15,2013-01-22 00:20:00,
2013-01-21 19:25:00,65.2,60.2,30.00,NNW,334,0.0,0.0,84,0.00,,,0.00,Wunderground v.1.15,2013-01-22 00:25:00,
2013-01-21 19:30:00,64.9,60.3,30.00,NNW,335,0.0,0.0,85,0.00,,,0.00,Wunderground v.1.15,2013-01-22 00:30:00,
2013-01-21 19:35:00,64.6,60.0,30.01,NNW,334,0.0,0.0,85,0.00,,,0.00,Wunderground v.1.15,2013-01-22 00:35:00,
2013-01-21 19:40:00,64.3,59.7,30.01,NNW,335,0.0,0.0,85,0.00,,,0.00,Wunderground v.1.15,2013-01-22 00:40:00,
2013-01-21 19:45:00,64.0,59.4,30.01,NNW,335,0.0,0.0,85,0.00,,,0.00,Wunderground v.1.15,2013-01-22 00:45:00,
2013-01-21 19:50:00,63.7,59.1,30.01,NNW,335,0.0,0.0,85,0.00,,,0.00,Wunderground v.1.15,2013-01-22 00:50:00,
2013-01-21 19:55:00,63.4,58.8,30.01,NNW,335,0.0,0.0,85,0.00,,,0.00,Wunderground v.1.15,2013-01-22 00:55:00,
2013-01-21 20:00:00,63.1,58.5,30.01,NNW,335,0.0,0.0,85,0.00,,,0.00,Wunderground v.1.15,2013-01-22 01:00:00,
2013-01-21 20:05:00,62.8,58.2,30.00,NNW,334,0.0,0.0,85,0.00,,,0.00,Wunderground v.1.15,2013-01-22 01:05:00,
2013-01-21 20:10:00,62.4,57.8,30.01,NNW,334,0.0,0.0,85,0.00,,,0.00,Wunderground v.1.15,2013-01-22 01:10:00,
2013-01-21 20:15:00,61.9,57.3,30.01,NNW,335,0.0,0.0,85,0.00,,,0.00,Wunderground v.1.15,2013-01-22 01:15:00,
2013-01-21 20:20:00,61.1,56.6,30.01,NNW,335,0.0,0.0,85,0.00,,,0.00,Wunderground v.1.15,2013-01-22 01:20:00,
2013-01-21 20:25:00,60.4,55.9,30.02,NNW,335,0.0,0.0,85,0.00,,,0.00,Wunderground v.1.15,2013-01-22 01:25:00,
2013-01-21 20:30:00,60.0,55.8,30.02,NNW,335,0.0,0.0,86,0.00,,,0.00,Wunderground v.1.15,2013-01-22 01:30:00,
2013-01-21 20:35:00,59.6,55.4,30.02,NNW,335,0.0,0.0,86,0.00,,,0.00,Wunderground v.1.15,2013-01-22 01:35:00,
2013-01-21 20:40:00,59.4,55.2,30.02,NNW,334,0.0,0.0,86,0.00,,,0.00,Wunderground v.1.15,2013-01-22 01:40:00,
2013-01-21 20:45:00,59.3,55.1,30.02,NNW,334,0.0,0.0,86,0.00,,,0.00,Wunderground v.1.15,2013-01-22 01:45:00,
2013-01-21 20:50:00,59.2,55.3,30.02,NNW,335,0.0,0.0,87,0.00,,,0.00,Wunderground v.1.15,2013-01-22 01:50:00,
2013-01-21 20:55:00,59.0,55.1,30.02,NNW,334,0.0,0.0,87,0.00,,,0.00,Wunderground v.1.15,2013-01-22 01:55:00,
2013-01-21 21:00:00,59.0,55.1,30.03,NNW,335,0.0,0.0,87,0.00,,,0.00,Wunderground v.1.15,2013-01-22 02:00:00,
2013-01-21 21:05:00,58.7,54.8,30.03,NNW,335,0.0,0.0,87,0.00,,,0.00,Wunderground v.1.15,2013-01-22 02:05:00,
2013-01-21 21:10:00,58.4,54.5,30.03,NNW,335,0.0,0.0,87,0.00,,,0.00,Wunderground v.1.15,2013-01-22 02:10:00,
2013-01-21 21:15:00,58.2,54.3,30.03,NNW,334,0.0,0.0,87,0.00,,,0.00,Wunderground v.1.15,2013-01-22 02:15:00,
2013-01-21 21:20:00,57.9,54.1,30.04,NNW,334,0.0,0.0,87,0.00,,,0.00,Wunderground v.1.15,2013-01-22 02:20:00,
2013-01-21 21:25:00,57.9,54.4,30.04,NNW,335,0.0,0.0,88,0.00,,,0.00,Wunderground v.1.15,2013-01-22 02:25:00,
2013-01-21 21:30:00,57.9,54.4,30.03,NNW,335,0.0,0.0,88,0.00,,,0.00,Wunderground v.1.15,2013-01-22 02:30:00,
2013-01-21 21:35:00,57.9,54.4,30.03,NNW,334,0.0,0.0,88,0.00,,,0.00,Wunderground v.1.15,2013-01-22 02:35:00,
2013-01-21 21:40:00,57.8,54.3,30.03,NNW,335,0.0,0.0,88,0.00,,,0.00,Wunderground v.1.15,2013-01-22 02:40:00,
2013-01-21 21:45:00,57.8,54.6,30.04,NNW,334,0.0,0.0,89,0.00,,,0.00,Wunderground v.1.15,2013-01-22 02:45:00,
2013-01-21 21:50:00,58.1,54.9,30.03,NNW,335,0.0,2.0,89,0.00,,,0.00,Wunderground v.1.15,2013-01-22 02:50:00,
2013-01-21 21:55:00,58.5,55.6,30.03,NNW,334,1.0,2.0,90,0.00,,,0.00,Wunderground v.1.15,2013-01-22 02:55:00,
2013-01-21 22:00:00,58.9,56.0,30.04,NNW,335,2.0,3.0,90,0.00,,,0.00,Wunderground v.1.15,2013-01-22 03:00:00,
2013-01-21 22:05:00,59.0,56.1,30.04,NNW,335,1.0,3.0,90,0.00,,,0.00,Wunderground v.1.15,2013-01-22 03:05:00,
2013-01-21 22:15:00,59.4,56.2,30.04,NNW,335,0.0,0.0,89,0.00,,,0.00,Wunderground v.1.15,2013-01-22 03:15:00,
2013-01-21 22:20:00,59.6,56.4,30.05,NNW,334,1.0,2.0,89,0.00,,,0.00,Wunderground v.1.15,2013-01-22 03:20:00,
2013-01-21 22:25:00,59.7,56.5,30.05,NNW,335,1.0,2.0,89,0.00,,,0.00,Wunderground v.1.15,2013-01-22 03:25:00,
2013-01-21 22:30:00,59.8,56.6,30.05,NNW,335,1.0,1.0,89,0.00,,,0.00,Wunderground v.1.15,2013-01-22 03:30:00,
2013-01-21 22:35:00,59.8,56.2,30.05,NNW,335,0.0,1.0,88,0.00,,,0.00,Wunderground v.1.15,2013-01-22 03:35:00,
2013-01-21 22:40:00,59.8,56.2,30.04,NNW,335,0.0,0.0,88,0.00,,,0.00,Wunderground v.1.15,2013-01-22 03:40:00,
2013-01-21 22:45:00,59.7,56.1,30.05,NNW,335,0.0,0.0,88,0.00,,,0.00,Wunderground v.1.15,2013-01-22 03:45:00,
2013-01-21 22:50:00,59.7,56.1,30.05,NNW,334,0.0,0.0,88,0.00,,,0.00,Wunderground v.1.15,2013-01-22 03:50:00,
2013-01-21 22:55:00,59.6,56.0,30.05,NNW,335,0.0,0.0,88,0.00,,,0.00,Wunderground v.1.15,2013-01-22 03:55:00,
2013-01-21 23:00:00,59.6,56.0,30.05,NNW,335,0.0,0.0,88,0.00,,,0.00,Wunderground v.1.15,2013-01-22 04:00:00,
2013-01-21 23:05:00,59.5,55.9,30.05,NNW,334,0.0,0.0,88,0.00,,,0.00,Wunderground v.1.15,2013-01-22 04:05:00,
2013-01-21 23:10:00,59.5,55.9,30.05,NNW,335,0.0,0.0,88,0.00,,,0.00,Wunderground v.1.15,2013-01-22 04:10:00,
2013-01-21 23:15:00,59.5,55.9,30.05,NNW,334,0.0,0.0,88,0.00,,,0.00,Wunderground v.1.15,2013-01-22 04:15:00,
2013-01-21 23:20:00,59.4,55.8,30.05,NNW,335,0.0,0.0,88,0.00,,,0.00,Wunderground v.1.15,2013-01-22 04:20:00,
2013-01-21 23:25:00,59.3,55.7,30.05,NNW,335,0.0,0.0,88,0.00,,,0.00,Wunderground v.1.15,2013-01-22 04:25:00,
2013-01-21 23:30:00,59.2,55.6,30.04,NNW,335,0.0,0.0,88,0.00,,,0.00,Wunderground v.1.15,2013-01-22 04:30:00,
2013-01-21 23:35:00,59.1,55.5,30.04,NNW,335,0.0,0.0,88,0.00,,,0.00,Wunderground v.1.15,2013-01-22 04:35:00,
2013-01-21 23:45:00,59.0,55.4,30.04,NNW,335,0.0,0.0,88,0.00,,,0.00,Wunderground v.1.15,2013-01-22 04:45:00,
2013-01-21 23:50:00,59.0,55.4,30.05,NNW,334,0.0,0.0,88,0.00,,,0.00,Wunderground v.1.15,2013-01-22 04:50:00,
2013-01-21 23:55:00,59.0,55.4,30.04,NNW,335,0.0,0.0,88,0.00,,,0.00,Wunderground v.1.15,2013-01-22 04:55:00,